Terminal Aerodrome Forecast
Issued by NWS Dallas/Fort Worth, TX

Home | Current Version | Previous Version | Text Only | Print | Product List | Glossary On
Versions: 1 2 3 4 5 6 7 8 9 10 11 12 13 14 15 16 17 18 19 20 21 22 23 24 25 26 27 28
000
FTUS44 KFWD 030255 AAA
TAFDFW
TAF AMD
KDFW 030255Z 0303/0406 18012KT P6SM FEW050 SCT150 BKN250
     FM031300 20009KT P6SM VCSH BKN050
      TEMPO 0314/0318 -SHRA BKN035
     FM031900 20013KT P6SM VCTS BKN050CB
     FM032200 18010KT P6SM SCT050 BKN150
     FM040100 21012KT P6SM SCT150=

USA.gov is the U.S. government's official web portal to all federal, state and local government web resources and services.